Terminal Aerodrome Forecast
Issued by NWS

Home | Current Version | Previous Version | Text Only | Print | Product List | Glossary On
Versions: 1 2 3 4 5 6 7 8 9 10 11 12 13 14 15
000
FTUS42 KKEY 201500 AAA
TAFMTH
TAF AMD
KMTH 201500Z 2015/2112 14006KT P6SM FEW025 SCT080
     FM210200 10005KT P6SM SCT025 BKN080=

USA.gov is the U.S. government's official web portal to all federal, state and local government web resources and services.